sensor_id;sensor_type;location;lat;lon;timestamp;P1;durP1;ratioP1;P2;durP2;ratioP2
35977;SDS011;22056;0.000;0.000;2023-05-10T00:00:42;4.30;;;0.82;;
35977;SDS011;22056;0.000;0.000;2023-05-10T00:03:09;4.72;;;1.00;;
35977;SDS011;22056;0.000;0.000;2023-05-10T00:05:35;4.30;;;1.13;;
35977;SDS011;22056;0.000;0.000;2023-05-10T00:08:01;4.47;;;1.10;;
35977;SDS011;22056;0.000;0.000;2023-05-10T00:10:27;4.07;;;1.00;;
35977;SDS011;22056;0.000;0.000;2023-05-10T00:12:53;4.75;;;0.93;;
35977;SDS011;22056;0.000;0.000;2023-05-10T00:15:19;2.33;;;0.75;;
35977;SDS011;22056;0.000;0.000;2023-05-10T00:17:45;1.85;;;0.80;;
35977;SDS011;22056;0.000;0.000;2023-05-10T00:20:12;2.78;;;0.90;;
35977;SDS011;22056;0.000;0.000;2023-05-10T00:22:38;2.13;;;0.80;;
35977;SDS011;22056;0.000;0.000;2023-05-10T00:25:04;3.83;;;0.80;;
35977;SDS011;22056;0.000;0.000;2023-05-10T00:27:31;1.80;;;0.90;;
35977;SDS011;22056;0.000;0.000;2023-05-10T00:29:57;2.33;;;0.90;;
35977;SDS011;22056;0.000;0.000;2023-05-10T00:32:23;2.38;;;0.90;;
35977;SDS011;22056;0.000;0.000;2023-05-10T00:34:49;2.92;;;0.88;;
35977;SDS011;22056;0.000;0.000;2023-05-10T00:37:15;3.47;;;1.10;;
35977;SDS011;22056;0.000;0.000;2023-05-10T00:39:41;2.85;;;0.80;;
35977;SDS011;22056;0.000;0.000;2023-05-10T00:42:08;2.53;;;0.80;;
35977;SDS011;22056;0.000;0.000;2023-05-10T00:44:34;1.70;;;0.70;;
35977;SDS011;22056;0.000;0.000;2023-05-10T00:47:00;1.88;;;0.70;;
35977;SDS011;22056;0.000;0.000;2023-05-10T00:49:26;2.50;;;0.77;;
35977;SDS011;22056;0.000;0.000;2023-05-10T00:51:52;1.58;;;0.90;;
35977;SDS011;22056;0.000;0.000;2023-05-10T00:54:18;1.50;;;0.70;;
35977;SDS011;22056;0.000;0.000;2023-05-10T00:56:45;1.73;;;0.60;;
35977;SDS011;22056;0.000;0.000;2023-05-10T00:59:14;2.45;;;1.08;;
35977;SDS011;22056;0.000;0.000;2023-05-10T01:01:42;3.00;;;0.85;;
35977;SDS011;22056;0.000;0.000;2023-05-10T01:04:08;1.42;;;0.70;;
35977;SDS011;22056;0.000;0.000;2023-05-10T01:06:36;1.85;;;0.73;;
35977;SDS011;22056;0.000;0.000;2023-05-10T01:09:02;1.58;;;0.60;;
35977;SDS011;22056;0.000;0.000;2023-05-10T01:11:28;2.35;;;0.80;;
35977;SDS011;22056;0.000;0.000;2023-05-10T01:13:55;1.80;;;0.57;;
35977;SDS011;22056;0.000;0.000;2023-05-10T01:16:22;0.85;;;0.60;;
35977;SDS011;22056;0.000;0.000;2023-05-10T01:18:48;1.15;;;0.70;;
35977;SDS011;22056;0.000;0.000;2023-05-10T01:21:23;1.50;;;0.55;;
35977;SDS011;22056;0.000;0.000;2023-05-10T01:29:11;0.90;;;0.68;;
35977;SDS011;22056;0.000;0.000;2023-05-10T01:34:09;1.65;;;0.70;;
35977;SDS011;22056;0.000;0.000;2023-05-10T01:36:41;2.42;;;0.52;;
35977;SDS011;22056;0.000;0.000;2023-05-10T01:39:17;1.48;;;0.70;;
35977;SDS011;22056;0.000;0.000;2023-05-10T01:44:35;1.30;;;0.75;;
35977;SDS011;22056;0.000;0.000;2023-05-10T01:49:34;1.75;;;0.73;;
35977;SDS011;22056;0.000;0.000;2023-05-10T01:52:09;2.47;;;0.80;;
35977;SDS011;22056;0.000;0.000;2023-05-10T01:54:38;2.58;;;0.70;;
35977;SDS011;22056;0.000;0.000;2023-05-10T01:57:06;0.75;;;0.50;;
35977;SDS011;22056;0.000;0.000;2023-05-10T01:59:35;0.80;;;0.50;;
35977;SDS011;22056;0.000;0.000;2023-05-10T02:02:05;1.27;;;0.68;;
35977;SDS011;22056;0.000;0.000;2023-05-10T02:04:33;2.08;;;0.73;;
35977;SDS011;22056;0.000;0.000;2023-05-10T02:07:01;1.52;;;0.60;;
35977;SDS011;22056;0.000;0.000;2023-05-10T02:09:27;1.30;;;0.70;;
35977;SDS011;22056;0.000;0.000;2023-05-10T02:11:55;0.95;;;0.52;;
35977;SDS011;22056;0.000;0.000;2023-05-10T02:14:22;2.42;;;0.60;;
35977;SDS011;22056;0.000;0.000;2023-05-10T02:16:50;1.65;;;0.70;;
35977;SDS011;22056;0.000;0.000;2023-05-10T02:19:17;2.20;;;0.50;;
35977;SDS011;22056;0.000;0.000;2023-05-10T02:21:43;1.17;;;0.60;;
35977;SDS011;22056;0.000;0.000;2023-05-10T02:24:11;1.17;;;0.50;;
35977;SDS011;22056;0.000;0.000;2023-05-10T02:26:37;1.02;;;0.60;;
35977;SDS011;22056;0.000;0.000;2023-05-10T02:29:03;1.10;;;0.65;;
35977;SDS011;22056;0.000;0.000;2023-05-10T02:31:32;0.90;;;0.57;;
35977;SDS011;22056;0.000;0.000;2023-05-10T02:33:59;0.98;;;0.70;;
35977;SDS011;22056;0.000;0.000;2023-05-10T02:36:26;1.30;;;0.50;;
35977;SDS011;22056;0.000;0.000;2023-05-10T02:38:53;1.25;;;0.70;;
35977;SDS011;22056;0.000;0.000;2023-05-10T02:41:20;0.82;;;0.50;;
35977;SDS011;22056;0.000;0.000;2023-05-10T02:43:49;0.60;;;0.50;;
35977;SDS011;22056;0.000;0.000;2023-05-10T02:46:17;1.52;;;0.63;;
35977;SDS011;22056;0.000;0.000;2023-05-10T02:48:43;0.57;;;0.43;;
35977;SDS011;22056;0.000;0.000;2023-05-10T02:51:09;0.82;;;0.55;;
35977;SDS011;22056;0.000;0.000;2023-05-10T02:53:38;0.90;;;0.40;;
35977;SDS011;22056;0.000;0.000;2023-05-10T02:56:11;0.50;;;0.50;;
35977;SDS011;22056;0.000;0.000;2023-05-10T02:58:38;0.63;;;0.50;;
35977;SDS011;22056;0.000;0.000;2023-05-10T03:01:04;0.68;;;0.57;;
35977;SDS011;22056;0.000;0.000;2023-05-10T03:03:32;1.30;;;0.52;;
35977;SDS011;22056;0.000;0.000;2023-05-10T03:05:58;1.60;;;0.70;;
35977;SDS011;22056;0.000;0.000;2023-05-10T03:08:24;3.10;;;0.60;;
35977;SDS011;22056;0.000;0.000;2023-05-10T03:11:16;1.05;;;0.55;;
35977;SDS011;22056;0.000;0.000;2023-05-10T03:16:14;0.57;;;0.50;;
35977;SDS011;22056;0.000;0.000;2023-05-10T03:21:08;0.70;;;0.60;;
35977;SDS011;22056;0.000;0.000;2023-05-10T03:23:44;1.23;;;0.60;;
35977;SDS011;22056;0.000;0.000;2023-05-10T03:26:13;1.35;;;0.60;;
35977;SDS011;22056;0.000;0.000;2023-05-10T03:28:41;1.15;;;0.50;;
35977;SDS011;22056;0.000;0.000;2023-05-10T03:31:07;1.05;;;0.50;;
35977;SDS011;22056;0.000;0.000;2023-05-10T03:33:34;0.65;;;0.57;;
35977;SDS011;22056;0.000;0.000;2023-05-10T03:36:00;0.70;;;0.60;;
35977;SDS011;22056;0.000;0.000;2023-05-10T03:38:26;0.70;;;0.60;;
35977;SDS011;22056;0.000;0.000;2023-05-10T03:40:52;0.60;;;0.60;;
35977;SDS011;22056;0.000;0.000;2023-05-10T03:43:18;0.60;;;0.60;;
35977;SDS011;22056;0.000;0.000;2023-05-10T03:45:44;0.70;;;0.50;;
35977;SDS011;22056;0.000;0.000;2023-05-10T03:48:10;0.77;;;0.55;;
35977;SDS011;22056;0.000;0.000;2023-05-10T03:50:38;0.85;;;0.70;;
35977;SDS011;22056;0.000;0.000;2023-05-10T03:53:05;2.33;;;0.70;;
35977;SDS011;22056;0.000;0.000;2023-05-10T03:55:31;0.80;;;0.60;;
35977;SDS011;22056;0.000;0.000;2023-05-10T03:57:59;0.80;;;0.70;;
35977;SDS011;22056;0.000;0.000;2023-05-10T04:00:25;0.50;;;0.50;;
35977;SDS011;22056;0.000;0.000;2023-05-10T04:02:51;0.55;;;0.50;;
35977;SDS011;22056;0.000;0.000;2023-05-10T04:05:17;0.70;;;0.60;;
35977;SDS011;22056;0.000;0.000;2023-05-10T04:07:44;0.77;;;0.60;;
35977;SDS011;22056;0.000;0.000;2023-05-10T04:10:11;0.57;;;0.50;;
35977;SDS011;22056;0.000;0.000;2023-05-10T04:12:38;0.90;;;0.60;;
35977;SDS011;22056;0.000;0.000;2023-05-10T04:15:05;0.70;;;0.70;;
35977;SDS011;22056;0.000;0.000;2023-05-10T04:17:31;2.15;;;0.80;;
35977;SDS011;22056;0.000;0.000;2023-05-10T04:19:57;1.05;;;0.77;;
35977;SDS011;22056;0.000;0.000;2023-05-10T04:22:24;0.75;;;0.60;;
35977;SDS011;22056;0.000;0.000;2023-05-10T04:24:50;1.10;;;0.57;;
35977;SDS011;22056;0.000;0.000;2023-05-10T04:27:16;1.67;;;0.80;;
35977;SDS011;22056;0.000;0.000;2023-05-10T04:29:42;2.20;;;0.80;;
35977;SDS011;22056;0.000;0.000;2023-05-10T04:32:08;0.70;;;0.60;;
35977;SDS011;22056;0.000;0.000;2023-05-10T04:34:35;2.50;;;0.80;;
35977;SDS011;22056;0.000;0.000;2023-05-10T04:37:02;0.70;;;0.65;;
35977;SDS011;22056;0.000;0.000;2023-05-10T04:39:28;1.33;;;0.73;;
35977;SDS011;22056;0.000;0.000;2023-05-10T04:41:54;0.90;;;0.70;;
35977;SDS011;22056;0.000;0.000;2023-05-10T04:44:20;2.75;;;1.00;;
35977;SDS011;22056;0.000;0.000;2023-05-10T04:46:47;1.45;;;0.75;;
35977;SDS011;22056;0.000;0.000;2023-05-10T04:49:13;1.25;;;0.80;;
35977;SDS011;22056;0.000;0.000;2023-05-10T04:51:39;2.35;;;0.80;;
35977;SDS011;22056;0.000;0.000;2023-05-10T04:54:05;2.70;;;0.90;;
35977;SDS011;22056;0.000;0.000;2023-05-10T04:56:31;1.83;;;0.90;;
35977;SDS011;22056;0.000;0.000;2023-05-10T04:58:57;1.23;;;1.00;;
35977;SDS011;22056;0.000;0.000;2023-05-10T05:01:24;1.42;;;0.73;;
35977;SDS011;22056;0.000;0.000;2023-05-10T05:03:50;1.30;;;0.82;;
35977;SDS011;22056;0.000;0.000;2023-05-10T05:06:17;2.28;;;0.80;;
35977;SDS011;22056;0.000;0.000;2023-05-10T05:08:46;3.10;;;1.00;;
35977;SDS011;22056;0.000;0.000;2023-05-10T05:11:14;1.83;;;0.80;;
35977;SDS011;22056;0.000;0.000;2023-05-10T05:13:40;2.35;;;1.00;;
35977;SDS011;22056;0.000;0.000;2023-05-10T05:16:06;1.73;;;1.10;;
35977;SDS011;22056;0.000;0.000;2023-05-10T05:18:32;2.63;;;1.02;;
35977;SDS011;22056;0.000;0.000;2023-05-10T05:20:58;2.03;;;1.00;;
35977;SDS011;22056;0.000;0.000;2023-05-10T05:23:25;2.80;;;1.40;;
35977;SDS011;22056;0.000;0.000;2023-05-10T05:25:51;2.33;;;1.05;;
35977;SDS011;22056;0.000;0.000;2023-05-10T05:28:18;2.60;;;1.10;;
35977;SDS011;22056;0.000;0.000;2023-05-10T05:30:44;4.78;;;1.30;;
35977;SDS011;22056;0.000;0.000;2023-05-10T05:33:11;2.42;;;1.13;;
35977;SDS011;22056;0.000;0.000;2023-05-10T05:35:37;1.63;;;1.25;;
35977;SDS011;22056;0.000;0.000;2023-05-10T05:38:03;2.05;;;1.10;;
35977;SDS011;22056;0.000;0.000;2023-05-10T05:40:29;1.88;;;1.27;;
35977;SDS011;22056;0.000;0.000;2023-05-10T05:42:55;3.40;;;1.00;;
35977;SDS011;22056;0.000;0.000;2023-05-10T05:45:21;2.15;;;1.30;;
35977;SDS011;22056;0.000;0.000;2023-05-10T05:47:48;4.68;;;1.23;;
35977;SDS011;22056;0.000;0.000;2023-05-10T05:50:14;3.83;;;1.38;;
35977;SDS011;22056;0.000;0.000;2023-05-10T05:52:40;4.93;;;1.50;;
35977;SDS011;22056;0.000;0.000;2023-05-10T05:55:06;4.30;;;1.60;;
35977;SDS011;22056;0.000;0.000;2023-05-10T05:57:32;3.38;;;1.80;;
35977;SDS011;22056;0.000;0.000;2023-05-10T05:59:59;4.05;;;1.30;;
35977;SDS011;22056;0.000;0.000;2023-05-10T06:02:25;3.42;;;1.30;;
35977;SDS011;22056;0.000;0.000;2023-05-10T06:04:51;4.43;;;1.48;;
35977;SDS011;22056;0.000;0.000;2023-05-10T06:07:17;4.13;;;1.60;;
35977;SDS011;22056;0.000;0.000;2023-05-10T06:09:43;6.90;;;1.95;;
35977;SDS011;22056;0.000;0.000;2023-05-10T06:12:09;2.90;;;1.55;;
35977;SDS011;22056;0.000;0.000;2023-05-10T06:14:36;4.10;;;1.60;;
35977;SDS011;22056;0.000;0.000;2023-05-10T06:17:02;6.82;;;2.20;;
35977;SDS011;22056;0.000;0.000;2023-05-10T06:19:30;5.30;;;1.55;;
35977;SDS011;22056;0.000;0.000;2023-05-10T06:21:56;10.43;;;2.10;;
35977;SDS011;22056;0.000;0.000;2023-05-10T06:24:22;5.45;;;1.70;;
35977;SDS011;22056;0.000;0.000;2023-05-10T06:26:48;2.38;;;1.63;;
35977;SDS011;22056;0.000;0.000;2023-05-10T06:29:15;2.75;;;1.88;;
35977;SDS011;22056;0.000;0.000;2023-05-10T06:31:41;7.78;;;1.75;;
35977;SDS011;22056;0.000;0.000;2023-05-10T06:34:07;4.88;;;1.33;;
35977;SDS011;22056;0.000;0.000;2023-05-10T06:36:33;5.65;;;1.50;;
35977;SDS011;22056;0.000;0.000;2023-05-10T06:38:59;4.00;;;1.70;;
35977;SDS011;22056;0.000;0.000;2023-05-10T06:41:26;7.70;;;1.77;;
35977;SDS011;22056;0.000;0.000;2023-05-10T06:43:52;4.72;;;1.80;;
35977;SDS011;22056;0.000;0.000;2023-05-10T06:46:18;2.03;;;1.60;;
35977;SDS011;22056;0.000;0.000;2023-05-10T06:48:44;6.57;;;1.70;;
35977;SDS011;22056;0.000;0.000;2023-05-10T06:51:11;3.72;;;1.70;;
35977;SDS011;22056;0.000;0.000;2023-05-10T06:53:37;5.90;;;1.95;;
35977;SDS011;22056;0.000;0.000;2023-05-10T06:56:03;5.72;;;1.60;;
35977;SDS011;22056;0.000;0.000;2023-05-10T06:58:29;3.97;;;1.60;;
35977;SDS011;22056;0.000;0.000;2023-05-10T07:01:01;4.07;;;1.83;;
35977;SDS011;22056;0.000;0.000;2023-05-10T07:03:27;3.50;;;1.52;;
35977;SDS011;22056;0.000;0.000;2023-05-10T07:05:53;4.68;;;1.55;;
35977;SDS011;22056;0.000;0.000;2023-05-10T07:08:20;4.30;;;1.80;;
35977;SDS011;22056;0.000;0.000;2023-05-10T07:10:46;3.92;;;1.70;;
35977;SDS011;22056;0.000;0.000;2023-05-10T07:13:12;6.10;;;1.80;;
35977;SDS011;22056;0.000;0.000;2023-05-10T07:15:38;5.32;;;2.05;;
35977;SDS011;22056;0.000;0.000;2023-05-10T07:18:04;3.08;;;1.60;;
35977;SDS011;22056;0.000;0.000;2023-05-10T07:20:31;3.00;;;1.52;;
35977;SDS011;22056;0.000;0.000;2023-05-10T07:22:57;3.47;;;1.65;;
35977;SDS011;22056;0.000;0.000;2023-05-10T07:25:23;3.75;;;1.90;;
35977;SDS011;22056;0.000;0.000;2023-05-10T07:27:49;7.40;;;1.90;;
35977;SDS011;22056;0.000;0.000;2023-05-10T07:30:16;4.63;;;1.85;;
35977;SDS011;22056;0.000;0.000;2023-05-10T07:32:42;6.97;;;1.85;;
35977;SDS011;22056;0.000;0.000;2023-05-10T07:35:08;9.23;;;2.05;;
35977;SDS011;22056;0.000;0.000;2023-05-10T07:37:34;4.68;;;1.83;;
35977;SDS011;22056;0.000;0.000;2023-05-10T07:40:00;3.88;;;1.88;;
35977;SDS011;22056;0.000;0.000;2023-05-10T07:42:27;4.57;;;1.75;;
35977;SDS011;22056;0.000;0.000;2023-05-10T07:44:53;4.40;;;2.03;;
35977;SDS011;22056;0.000;0.000;2023-05-10T07:47:20;2.38;;;1.48;;
35977;SDS011;22056;0.000;0.000;2023-05-10T07:49:46;3.47;;;1.70;;
35977;SDS011;22056;0.000;0.000;2023-05-10T07:52:12;6.00;;;1.55;;
35977;SDS011;22056;0.000;0.000;2023-05-10T07:54:38;5.25;;;1.75;;
35977;SDS011;22056;0.000;0.000;2023-05-10T07:57:04;4.20;;;1.52;;
35977;SDS011;22056;0.000;0.000;2023-05-10T07:59:31;4.65;;;1.52;;
35977;SDS011;22056;0.000;0.000;2023-05-10T08:01:58;8.02;;;1.65;;
35977;SDS011;22056;0.000;0.000;2023-05-10T08:04:24;8.20;;;2.10;;
35977;SDS011;22056;0.000;0.000;2023-05-10T08:06:50;5.38;;;1.85;;
35977;SDS011;22056;0.000;0.000;2023-05-10T08:09:16;3.63;;;1.60;;
35977;SDS011;22056;0.000;0.000;2023-05-10T08:11:44;11.52;;;2.08;;
35977;SDS011;22056;0.000;0.000;2023-05-10T08:14:10;8.90;;;2.10;;
35977;SDS011;22056;0.000;0.000;2023-05-10T08:16:36;3.70;;;1.80;;
35977;SDS011;22056;0.000;0.000;2023-05-10T08:19:02;4.75;;;1.60;;
35977;SDS011;22056;0.000;0.000;2023-05-10T08:21:28;3.00;;;1.58;;
35977;SDS011;22056;0.000;0.000;2023-05-10T08:23:56;5.50;;;2.10;;
35977;SDS011;22056;0.000;0.000;2023-05-10T08:26:22;7.07;;;1.65;;
35977;SDS011;22056;0.000;0.000;2023-05-10T08:28:48;6.18;;;1.90;;
35977;SDS011;22056;0.000;0.000;2023-05-10T08:31:15;4.95;;;1.83;;
35977;SDS011;22056;0.000;0.000;2023-05-10T08:33:41;3.65;;;1.85;;
35977;SDS011;22056;0.000;0.000;2023-05-10T08:36:07;6.85;;;1.85;;
35977;SDS011;22056;0.000;0.000;2023-05-10T08:38:33;4.55;;;1.83;;
35977;SDS011;22056;0.000;0.000;2023-05-10T08:40:59;5.50;;;2.00;;
35977;SDS011;22056;0.000;0.000;2023-05-10T08:43:27;4.68;;;1.75;;
35977;SDS011;22056;0.000;0.000;2023-05-10T08:45:54;7.00;;;2.08;;
35977;SDS011;22056;0.000;0.000;2023-05-10T08:48:23;8.05;;;1.73;;
35977;SDS011;22056;0.000;0.000;2023-05-10T08:50:49;7.70;;;2.03;;
35977;SDS011;22056;0.000;0.000;2023-05-10T08:53:18;4.05;;;2.17;;
35977;SDS011;22056;0.000;0.000;2023-05-10T08:55:45;3.00;;;2.03;;
35977;SDS011;22056;0.000;0.000;2023-05-10T08:58:11;4.03;;;1.85;;
35977;SDS011;22056;0.000;0.000;2023-05-10T09:00:38;6.55;;;1.98;;
35977;SDS011;22056;0.000;0.000;2023-05-10T09:03:04;6.55;;;2.05;;
35977;SDS011;22056;0.000;0.000;2023-05-10T09:05:31;4.47;;;1.65;;
35977;SDS011;22056;0.000;0.000;2023-05-10T09:07:57;3.25;;;1.65;;
35977;SDS011;22056;0.000;0.000;2023-05-10T09:10:25;5.82;;;2.30;;
35977;SDS011;22056;0.000;0.000;2023-05-10T09:12:52;4.68;;;1.75;;
35977;SDS011;22056;0.000;0.000;2023-05-10T09:15:19;5.68;;;2.13;;
35977;SDS011;22056;0.000;0.000;2023-05-10T09:17:45;5.55;;;1.88;;
35977;SDS011;22056;0.000;0.000;2023-05-10T09:20:11;5.68;;;1.80;;
35977;SDS011;22056;0.000;0.000;2023-05-10T09:22:38;7.85;;;2.38;;
35977;SDS011;22056;0.000;0.000;2023-05-10T09:27:35;3.80;;;1.63;;
35977;SDS011;22056;0.000;0.000;2023-05-10T09:30:02;6.15;;;1.83;;
35977;SDS011;22056;0.000;0.000;2023-05-10T09:32:38;5.68;;;1.58;;
35977;SDS011;22056;0.000;0.000;2023-05-10T09:35:11;4.75;;;1.85;;
35977;SDS011;22056;0.000;0.000;2023-05-10T09:37:41;5.82;;;1.88;;
35977;SDS011;22056;0.000;0.000;2023-05-10T09:40:08;4.95;;;1.83;;
35977;SDS011;22056;0.000;0.000;2023-05-10T09:42:37;3.33;;;1.50;;
35977;SDS011;22056;0.000;0.000;2023-05-10T09:45:03;4.22;;;1.50;;
35977;SDS011;22056;0.000;0.000;2023-05-10T09:47:36;5.47;;;1.60;;
35977;SDS011;22056;0.000;0.000;2023-05-10T09:50:02;2.72;;;1.38;;
35977;SDS011;22056;0.000;0.000;2023-05-10T09:52:30;6.13;;;1.70;;
35977;SDS011;22056;0.000;0.000;2023-05-10T09:54:57;4.05;;;1.50;;
35977;SDS011;22056;0.000;0.000;2023-05-10T09:57:23;4.60;;;1.70;;
35977;SDS011;22056;0.000;0.000;2023-05-10T09:59:51;4.88;;;1.58;;
35977;SDS011;22056;0.000;0.000;2023-05-10T10:02:19;7.47;;;1.52;;
35977;SDS011;22056;0.000;0.000;2023-05-10T10:04:48;3.83;;;1.50;;
35977;SDS011;22056;0.000;0.000;2023-05-10T10:07:15;3.90;;;1.50;;
35977;SDS011;22056;0.000;0.000;2023-05-10T10:09:48;4.47;;;1.60;;
35977;SDS011;22056;0.000;0.000;2023-05-10T10:12:14;5.43;;;1.40;;
35977;SDS011;22056;0.000;0.000;2023-05-10T10:14:40;8.00;;;1.52;;
35977;SDS011;22056;0.000;0.000;2023-05-10T10:17:07;3.58;;;1.30;;
35977;SDS011;22056;0.000;0.000;2023-05-10T10:19:34;6.35;;;1.50;;
35977;SDS011;22056;0.000;0.000;2023-05-10T10:22:00;5.22;;;1.42;;
35977;SDS011;22056;0.000;0.000;2023-05-10T10:24:27;5.72;;;1.58;;
35977;SDS011;22056;0.000;0.000;2023-05-10T10:26:54;6.63;;;1.33;;
35977;SDS011;22056;0.000;0.000;2023-05-10T10:31:55;4.80;;;1.50;;
35977;SDS011;22056;0.000;0.000;2023-05-10T10:34:27;10.70;;;1.92;;
35977;SDS011;22056;0.000;0.000;2023-05-10T10:36:54;5.35;;;1.70;;
35977;SDS011;22056;0.000;0.000;2023-05-10T10:39:21;2.38;;;1.30;;
35977;SDS011;22056;0.000;0.000;2023-05-10T10:41:57;4.20;;;1.52;;
35977;SDS011;22056;0.000;0.000;2023-05-10T10:49:24;2.88;;;1.33;;
35977;SDS011;22056;0.000;0.000;2023-05-10T10:54:35;7.30;;;1.58;;
35977;SDS011;22056;0.000;0.000;2023-05-10T10:57:19;4.32;;;1.42;;
35977;SDS011;22056;0.000;0.000;2023-05-10T10:59:48;5.47;;;1.70;;
35977;SDS011;22056;0.000;0.000;2023-05-10T11:02:34;4.57;;;1.52;;
35977;SDS011;22056;0.000;0.000;2023-05-10T11:07:56;4.93;;;1.45;;
35977;SDS011;22056;0.000;0.000;2023-05-10T11:10:23;4.43;;;1.65;;
35977;SDS011;22056;0.000;0.000;2023-05-10T11:12:53;4.43;;;1.63;;
35977;SDS011;22056;0.000;0.000;2023-05-10T11:15:27;5.93;;;1.45;;
35977;SDS011;22056;0.000;0.000;2023-05-10T11:17:54;6.43;;;1.80;;
35977;SDS011;22056;0.000;0.000;2023-05-10T11:20:20;5.93;;;1.55;;
35977;SDS011;22056;0.000;0.000;2023-05-10T11:22:52;2.80;;;1.40;;
35977;SDS011;22056;0.000;0.000;2023-05-10T11:25:19;9.07;;;1.58;;
35977;SDS011;22056;0.000;0.000;2023-05-10T11:27:48;7.57;;;1.65;;
35977;SDS011;22056;0.000;0.000;2023-05-10T11:30:15;6.93;;;1.67;;
35977;SDS011;22056;0.000;0.000;2023-05-10T11:32:41;4.70;;;1.50;;
35977;SDS011;22056;0.000;0.000;2023-05-10T11:35:08;5.07;;;1.50;;
35977;SDS011;22056;0.000;0.000;2023-05-10T11:37:34;4.07;;;1.73;;
35977;SDS011;22056;0.000;0.000;2023-05-10T11:40:00;2.58;;;1.48;;
35977;SDS011;22056;0.000;0.000;2023-05-10T11:42:27;4.95;;;1.80;;
35977;SDS011;22056;0.000;0.000;2023-05-10T11:44:54;4.47;;;1.70;;
35977;SDS011;22056;0.000;0.000;2023-05-10T11:47:20;6.63;;;1.50;;
35977;SDS011;22056;0.000;0.000;2023-05-10T11:49:46;4.13;;;1.60;;
35977;SDS011;22056;0.000;0.000;2023-05-10T11:52:12;3.42;;;1.48;;
35977;SDS011;22056;0.000;0.000;2023-05-10T11:54:45;5.72;;;1.42;;
35977;SDS011;22056;0.000;0.000;2023-05-10T11:57:17;4.78;;;1.73;;
35977;SDS011;22056;0.000;0.000;2023-05-10T11:59:44;6.60;;;1.75;;
35977;SDS011;22056;0.000;0.000;2023-05-10T12:02:11;10.73;;;2.40;;
35977;SDS011;22056;0.000;0.000;2023-05-10T12:04:37;6.35;;;2.20;;
35977;SDS011;22056;0.000;0.000;2023-05-10T12:07:03;7.90;;;2.05;;
35977;SDS011;22056;0.000;0.000;2023-05-10T12:09:29;10.75;;;2.22;;
35977;SDS011;22056;0.000;0.000;2023-05-10T12:11:56;8.32;;;1.88;;
35977;SDS011;22056;0.000;0.000;2023-05-10T12:14:22;7.05;;;2.05;;
35977;SDS011;22056;0.000;0.000;2023-05-10T12:16:49;6.80;;;1.75;;
35977;SDS011;22056;0.000;0.000;2023-05-10T12:19:18;4.90;;;1.70;;
35977;SDS011;22056;0.000;0.000;2023-05-10T12:21:48;5.63;;;2.25;;
35977;SDS011;22056;0.000;0.000;2023-05-10T12:24:14;6.03;;;1.85;;
35977;SDS011;22056;0.000;0.000;2023-05-10T12:26:47;5.13;;;1.50;;
35977;SDS011;22056;0.000;0.000;2023-05-10T12:29:14;6.78;;;2.22;;
35977;SDS011;22056;0.000;0.000;2023-05-10T12:31:56;6.72;;;1.80;;
35977;SDS011;22056;0.000;0.000;2023-05-10T12:34:33;9.05;;;2.05;;
35977;SDS011;22056;0.000;0.000;2023-05-10T12:37:00;8.18;;;1.80;;
35977;SDS011;22056;0.000;0.000;2023-05-10T12:39:38;7.82;;;2.35;;
35977;SDS011;22056;0.000;0.000;2023-05-10T12:42:04;4.05;;;1.70;;
35977;SDS011;22056;0.000;0.000;2023-05-10T12:44:31;8.77;;;2.30;;
35977;SDS011;22056;0.000;0.000;2023-05-10T12:46:57;8.07;;;2.05;;
35977;SDS011;22056;0.000;0.000;2023-05-10T12:49:23;7.68;;;1.85;;
35977;SDS011;22056;0.000;0.000;2023-05-10T12:51:49;10.40;;;2.15;;
35977;SDS011;22056;0.000;0.000;2023-05-10T12:54:15;6.72;;;2.10;;
35977;SDS011;22056;0.000;0.000;2023-05-10T12:56:41;4.07;;;1.95;;
35977;SDS011;22056;0.000;0.000;2023-05-10T12:59:07;7.32;;;1.85;;
35977;SDS011;22056;0.000;0.000;2023-05-10T13:01:34;13.40;;;2.78;;
35977;SDS011;22056;0.000;0.000;2023-05-10T13:04:00;10.77;;;2.42;;
35977;SDS011;22056;0.000;0.000;2023-05-10T13:06:26;9.93;;;2.20;;
35977;SDS011;22056;0.000;0.000;2023-05-10T13:08:52;5.15;;;1.95;;
35977;SDS011;22056;0.000;0.000;2023-05-10T13:11:18;15.20;;;2.67;;
35977;SDS011;22056;0.000;0.000;2023-05-10T13:13:45;8.82;;;1.90;;
35977;SDS011;22056;0.000;0.000;2023-05-10T13:16:11;5.32;;;1.95;;
35977;SDS011;22056;0.000;0.000;2023-05-10T13:18:37;9.90;;;2.58;;
35977;SDS011;22056;0.000;0.000;2023-05-10T13:21:03;11.13;;;2.13;;
35977;SDS011;22056;0.000;0.000;2023-05-10T13:23:30;6.85;;;2.00;;
35977;SDS011;22056;0.000;0.000;2023-05-10T13:25:56;4.88;;;2.05;;
35977;SDS011;22056;0.000;0.000;2023-05-10T13:28:22;9.30;;;2.60;;
35977;SDS011;22056;0.000;0.000;2023-05-10T13:30:51;10.32;;;2.30;;
35977;SDS011;22056;0.000;0.000;2023-05-10T13:33:19;11.52;;;2.08;;
35977;SDS011;22056;0.000;0.000;2023-05-10T13:35:45;5.50;;;2.40;;
35977;SDS011;22056;0.000;0.000;2023-05-10T13:38:12;14.43;;;3.13;;
35977;SDS011;22056;0.000;0.000;2023-05-10T13:40:38;5.45;;;1.90;;
35977;SDS011;22056;0.000;0.000;2023-05-10T13:43:04;7.70;;;2.75;;
35977;SDS011;22056;0.000;0.000;2023-05-10T13:45:31;7.05;;;2.30;;
35977;SDS011;22056;0.000;0.000;2023-05-10T13:47:57;9.00;;;2.45;;
35977;SDS011;22056;0.000;0.000;2023-05-10T13:50:23;9.38;;;2.42;;
35977;SDS011;22056;0.000;0.000;2023-05-10T13:52:49;8.00;;;2.38;;
35977;SDS011;22056;0.000;0.000;2023-05-10T13:55:15;12.13;;;2.20;;
35977;SDS011;22056;0.000;0.000;2023-05-10T13:57:41;8.70;;;2.17;;
35977;SDS011;22056;0.000;0.000;2023-05-10T14:00:08;9.85;;;2.50;;
35977;SDS011;22056;0.000;0.000;2023-05-10T14:02:34;4.40;;;1.90;;
35977;SDS011;22056;0.000;0.000;2023-05-10T14:05:01;7.35;;;2.22;;
35977;SDS011;22056;0.000;0.000;2023-05-10T14:07:27;8.10;;;2.10;;
35977;SDS011;22056;0.000;0.000;2023-05-10T14:09:53;9.75;;;2.50;;
35977;SDS011;22056;0.000;0.000;2023-05-10T14:12:19;5.57;;;1.77;;
35977;SDS011;22056;0.000;0.000;2023-05-10T14:14:45;7.05;;;2.10;;
35977;SDS011;22056;0.000;0.000;2023-05-10T14:17:11;11.18;;;2.30;;
35977;SDS011;22056;0.000;0.000;2023-05-10T14:19:37;8.15;;;2.08;;
35977;SDS011;22056;0.000;0.000;2023-05-10T14:22:04;9.95;;;2.45;;
35977;SDS011;22056;0.000;0.000;2023-05-10T14:24:30;9.25;;;2.30;;
35977;SDS011;22056;0.000;0.000;2023-05-10T14:26:56;15.10;;;2.55;;
35977;SDS011;22056;0.000;0.000;2023-05-10T14:29:23;6.78;;;2.08;;
35977;SDS011;22056;0.000;0.000;2023-05-10T14:31:49;6.35;;;1.90;;
35977;SDS011;22056;0.000;0.000;2023-05-10T14:34:16;14.60;;;2.50;;
35977;SDS011;22056;0.000;0.000;2023-05-10T14:36:42;8.82;;;2.08;;
35977;SDS011;22056;0.000;0.000;2023-05-10T14:39:08;6.93;;;2.10;;
35977;SDS011;22056;0.000;0.000;2023-05-10T14:41:35;7.82;;;1.92;;
35977;SDS011;22056;0.000;0.000;2023-05-10T14:44:02;6.90;;;2.10;;
35977;SDS011;22056;0.000;0.000;2023-05-10T14:46:28;9.57;;;1.90;;
35977;SDS011;22056;0.000;0.000;2023-05-10T14:48:54;10.18;;;1.77;;
35977;SDS011;22056;0.000;0.000;2023-05-10T14:51:21;6.50;;;1.65;;
35977;SDS011;22056;0.000;0.000;2023-05-10T14:53:48;6.35;;;1.92;;
35977;SDS011;22056;0.000;0.000;2023-05-10T14:56:14;4.63;;;1.70;;
35977;SDS011;22056;0.000;0.000;2023-05-10T14:58:40;6.70;;;1.67;;
35977;SDS011;22056;0.000;0.000;2023-05-10T15:01:06;6.97;;;1.98;;
35977;SDS011;22056;0.000;0.000;2023-05-10T15:03:33;6.03;;;1.80;;
35977;SDS011;22056;0.000;0.000;2023-05-10T15:05:59;4.00;;;1.70;;
35977;SDS011;22056;0.000;0.000;2023-05-10T15:08:25;14.25;;;2.08;;
35977;SDS011;22056;0.000;0.000;2023-05-10T15:10:51;4.35;;;1.60;;
35977;SDS011;22056;0.000;0.000;2023-05-10T15:13:17;5.50;;;1.50;;
35977;SDS011;22056;0.000;0.000;2023-05-10T15:15:43;4.78;;;1.85;;
35977;SDS011;22056;0.000;0.000;2023-05-10T15:18:09;4.97;;;1.98;;
35977;SDS011;22056;0.000;0.000;2023-05-10T15:20:35;4.47;;;1.60;;
35977;SDS011;22056;0.000;0.000;2023-05-10T15:23:02;4.55;;;1.88;;
35977;SDS011;22056;0.000;0.000;2023-05-10T15:25:28;7.10;;;1.70;;
35977;SDS011;22056;0.000;0.000;2023-05-10T15:27:54;5.75;;;1.40;;
35977;SDS011;22056;0.000;0.000;2023-05-10T15:30:20;5.32;;;1.60;;
35977;SDS011;22056;0.000;0.000;2023-05-10T15:32:46;9.45;;;1.80;;